Time;durP1;ratioP1;P1;durP2;ratioP2;P2;SDS_P1;SDS_P2;PMS_P1;PMS_P2;Temp;Humidity;BMP_temperature;BMP_pressure;BME280_temperature;BME280_humidity;BME280_pressure;Samples;Min_cycle;Max_cycle;Signal;HPM_P1;HPM_P2
2022/01/28 00:00:25;;;;;;;33.13;19.20;;;;;;;-2.21;73.01;97499.47;6072494;23;20203;-84
2022/01/28 00:03:09;;;;;;;26.90;14.77;;;;;;;-2.46;74.11;97483.13;6119612;23;20191;-84
2022/01/28 00:05:38;;;;;;;25.53;14.10;;;;;;;-2.70;75.13;97488.72;6150455;23;20166;-83
2022/01/28 00:08:09;;;;;;;24.27;13.87;;;;;;;-2.87;75.53;97464.88;6151693;23;20184;-83
2022/01/28 00:11:04;;;;;;;22.53;13.20;;;;;;;-3.89;75.64;97302.31;6103218;23;20974;-84
2022/01/28 00:14:48;;;;;;;19.53;11.77;;;;;;;-3.90;77.01;97318.31;6051930;23;20244;-83
2022/01/28 00:39:50;;;;;;;22.50;11.50;;;;;;;-3.11;78.22;97474.66;6151271;23;20218;-86
2022/01/28 00:42:18;;;;;;;21.23;11.57;;;;;;;-3.32;78.69;97454.94;6080551;23;20195;-85
2022/01/28 00:44:50;;;;;;;22.77;11.97;;;;;;;-3.79;78.58;97374.13;6104136;23;20175;-85
2022/01/28 00:47:19;;;;;;;18.80;11.17;;;;;;;-3.37;79.38;97451.53;6104165;23;20180;-84
2022/01/28 00:49:51;;;;;;;20.33;11.33;;;;;;;-3.28;79.18;97470.19;6125607;23;20195;-85
2022/01/28 00:52:22;;;;;;;19.97;11.93;;;;;;;-3.45;78.99;97442.97;6151124;23;20223;-84
2022/01/28 00:54:50;;;;;;;17.77;10.07;;;;;;;-3.15;78.74;97472.09;6077047;23;20184;-84
2022/01/28 00:57:18;;;;;;;18.80;10.50;;;;;;;-3.15;78.26;97467.03;6101018;23;20167;-83
2022/01/28 00:59:45;;;;;;;21.00;11.50;;;;;;;-3.31;78.27;97448.22;6125832;23;20689;-84
2022/01/28 01:02:15;;;;;;;18.33;11.63;;;;;;;-3.41;78.54;97424.47;6151532;23;20167;-83
2022/01/28 01:04:44;;;;;;;19.80;11.73;;;;;;;-3.34;78.24;97433.81;6100826;23;20204;-84
2022/01/28 01:07:14;;;;;;;22.03;11.80;;;;;;;-3.24;78.60;97455.09;6099668;23;20179;-83
2022/01/28 01:09:48;;;;;;;19.80;11.77;;;;;;;-3.29;78.69;97438.97;6123217;23;20204;-84
2022/01/28 01:12:20;;;;;;;20.60;11.93;;;;;;;-3.18;77.70;97444.19;6123690;23;20176;-84
2022/01/28 01:14:51;;;;;;;19.63;10.90;;;;;;;-3.50;78.41;97373.69;6080368;23;20199;-84
2022/01/28 01:20:05;;;;;;;20.70;10.70;;;;;;;-3.14;77.89;97425.66;6130373;23;20262;-84
2022/01/28 01:22:38;;;;;;;22.93;11.20;;;;;;;-3.13;77.90;97404.59;6106789;23;20163;-83
2022/01/28 01:25:16;;;;;;;18.80;11.43;;;;;;;-3.04;77.51;97415.69;6130118;23;20711;-84
2022/01/28 01:27:48;;;;;;;17.23;10.87;;;;;;;-2.98;77.47;97410.69;6096626;23;20215;-84
2022/01/28 01:30:18;;;;;;;18.57;10.63;;;;;;;-2.98;77.28;97397.16;6128951;23;20165;-84
2022/01/28 01:32:45;;;;;;;19.67;11.10;;;;;;;-2.94;76.75;97393.84;6154892;23;20175;-84
2022/01/28 01:35:13;;;;;;;18.20;10.70;;;;;;;-3.03;77.65;97386.16;6128845;23;20229;-84
2022/01/28 01:37:41;;;;;;;19.67;10.97;;;;;;;-2.94;76.47;97387.09;6104342;23;20251;-84
2022/01/28 01:40:09;;;;;;;16.47;10.37;;;;;;;-2.91;76.92;97381.22;6128287;23;20226;-84
2022/01/28 01:42:54;;;;;;;15.53;9.37;;;;;;;-3.00;76.21;97345.63;6101664;23;20200;-83
2022/01/28 01:53:33;;;;;;;18.37;8.97;;;;;;;-2.68;75.17;97355.28;6124570;23;20578;-84
2022/01/28 01:56:03;;;;;;;17.43;8.97;;;;;;;-2.66;75.10;97343.47;6123033;23;20172;-83
2022/01/28 01:58:33;;;;;;;17.33;10.07;;;;;;;-2.53;75.03;97347.84;6100758;23;20176;-84
2022/01/28 02:01:04;;;;;;;20.03;10.57;;;;;;;-2.80;74.95;97319.69;6123997;23;20278;-83
2022/01/28 02:03:32;;;;;;;20.13;9.83;;;;;;;-2.65;75.54;97349.41;6127156;23;20220;-83
2022/01/28 02:06:02;;;;;;;14.00;9.07;;;;;;;-2.67;75.08;97325.72;6072984;23;20176;-84
2022/01/28 02:08:33;;;;;;;20.37;9.97;;;;;;;-2.63;75.12;97327.47;6123685;23;20172;-85
2022/01/28 02:11:03;;;;;;;20.37;10.23;;;;;;;-2.66;74.60;97302.09;6150315;23;20174;-84
2022/01/28 02:13:39;;;;;;;20.20;10.97;;;;;;;-2.36;74.22;97344.63;6127070;23;20234;-85
2022/01/28 02:16:09;;;;;;;22.30;11.53;;;;;;;-2.29;74.11;97352.31;6101879;23;20526;-82
2022/01/28 02:18:37;;;;;;;26.87;15.17;;;;;;;-2.40;73.53;97331.06;6126157;23;20213;-82
2022/01/28 02:21:11;;;;;;;25.03;13.23;;;;;;;-2.47;73.91;97339.44;6151050;23;20568;-82
2022/01/28 02:23:40;;;;;;;23.17;13.13;;;;;;;-2.53;73.91;97319.09;6123449;23;20182;-83
2022/01/28 02:26:12;;;;;;;34.97;14.90;;;;;;;-2.69;73.78;97317.25;6101038;23;20207;-83
2022/01/28 02:28:43;;;;;;;27.07;13.60;;;;;;;-3.02;74.79;97302.56;6134640;23;20253;-83
2022/01/28 02:31:20;;;;;;;25.37;14.17;;;;;;;-3.07;76.39;97318.56;6135634;23;20172;-84
2022/01/28 02:33:53;;;;;;;21.57;12.70;;;;;;;-3.05;76.33;97314.34;6154587;23;20578;-82
2022/01/28 02:36:21;;;;;;;23.33;12.13;;;;;;;-3.08;76.67;97312.63;6152260;23;20163;-84
2022/01/28 02:39:19;;;;;;;20.70;11.73;;;;;;;-3.32;76.74;97270.16;6133502;23;20253;-83
2022/01/28 02:41:54;;;;;;;23.03;11.50;;;;;;;-3.08;76.71;97304.19;6107303;23;20177;-83
2022/01/28 02:44:41;;;;;;;18.03;10.97;;;;;;;-3.20;77.18;97293.91;6133167;23;20271;-84
2022/01/28 02:47:15;;;;;;;18.30;10.67;;;;;;;-3.28;77.56;97303.09;6109175;23;20238;-84
2022/01/28 02:49:46;;;;;;;15.23;10.50;;;;;;;-3.33;77.78;97291.25;6116496;23;20176;-84
2022/01/28 02:52:21;;;;;;;17.87;9.87;;;;;;;-3.34;77.79;97293.78;6138517;23;20170;-84
2022/01/28 02:54:50;;;;;;;21.23;9.93;;;;;;;-3.28;77.72;97277.78;6137041;23;20177;-83
2022/01/28 02:57:26;;;;;;;21.87;10.10;;;;;;;-3.23;77.41;97283.75;6141712;23;20168;-84
2022/01/28 02:59:56;;;;;;;20.50;10.20;;;;;;;-3.13;77.93;97290.63;6068871;23;20199;-83
2022/01/28 03:02:26;;;;;;;16.67;9.87;;;;;;;-3.03;77.39;97284.84;6091394;23;20159;-84
2022/01/28 03:07:28;;;;;;;13.70;8.27;;;;;;;-2.83;76.43;97288.41;6163962;23;20207;-84
2022/01/28 03:10:41;;;;;;;19.27;9.87;;;;;;;-3.08;75.90;97251.84;6108867;23;20181;-84
2022/01/28 03:13:59;;;;;;;15.77;8.80;;;;;;;-2.85;76.58;97290.09;6157564;23;20170;-85
2022/01/28 03:16:37;;;;;;;11.73;7.63;;;;;;;-2.90;76.36;97268.91;6127297;23;20185;-88
2022/01/28 03:19:17;;;;;;;15.87;8.03;;;;;;;-2.72;76.48;97292.75;6098347;23;20226;-83
2022/01/28 03:21:58;;;;;;;17.10;9.43;;;;;;;-2.76;76.71;97277.53;6123776;23;20236;-84
2022/01/28 03:24:38;;;;;;;18.30;8.80;;;;;;;-2.79;76.33;97292.69;6154586;23;20170;-84
2022/01/28 03:27:17;;;;;;;24.97;11.30;;;;;;;-2.90;75.33;97289.19;6116529;23;20541;-84
2022/01/28 03:29:46;;;;;;;24.47;11.97;;;;;;;-2.90;75.03;97281.56;6127735;23;20201;-83
2022/01/28 03:32:14;;;;;;;24.13;12.40;;;;;;;-3.01;74.40;97293.28;6101783;23;20174;-83
2022/01/28 03:34:43;;;;;;;22.43;13.17;;;;;;;-3.08;74.23;97263.66;6102140;23;20174;-83
2022/01/28 03:37:14;;;;;;;21.23;12.00;;;;;;;-3.11;74.33;97297.38;6126677;23;20167;-83
2022/01/28 03:39:41;;;;;;;25.00;12.40;;;;;;;-3.13;74.47;97303.28;6053164;23;20204;-85
2022/01/28 03:42:32;;;;;;;19.17;11.13;;;;;;;-3.24;74.70;97289.66;6137609;23;20208;-84
2022/01/28 03:45:01;;;;;;;23.47;11.27;;;;;;;-3.30;74.49;97295.50;6152306;23;20665;-84
2022/01/28 03:47:36;;;;;;;25.33;12.20;;;;;;;-3.30;74.54;97270.19;6131544;23;20193;-87
2022/01/28 03:50:06;;;;;;;20.67;10.70;;;;;;;-3.23;74.38;97283.75;6143247;23;20176;-86
2022/01/28 03:52:52;;;;;;;22.27;12.20;;;;;;;-3.22;74.13;97278.72;6108615;23;20177;-84
2022/01/28 03:55:21;;;;;;;21.27;11.90;;;;;;;-3.28;74.14;97285.38;6131626;23;20198;-85
2022/01/28 03:57:50;;;;;;;24.93;13.13;;;;;;;-3.40;74.29;97259.09;6081586;23;20176;-85
2022/01/28 04:00:25;;;;;;;26.17;14.13;;;;;;;-3.35;74.53;97266.75;6133538;23;20202;-85
2022/01/28 04:11:44;;;;;;;27.97;12.80;;;;;;;-3.26;75.79;97271.06;6126421;23;20173;-84
2022/01/28 04:14:41;;;;;;;26.60;13.97;;;;;;;-3.23;75.55;97260.94;6127137;23;20178;-84
2022/01/28 04:17:22;;;;;;;24.93;13.60;;;;;;;-3.27;75.42;97244.88;6153329;23;20176;-86
2022/01/28 04:19:52;;;;;;;26.30;14.17;;;;;;;-3.20;75.50;97271.13;6152775;23;20233;-84
2022/01/28 04:22:20;;;;;;;23.80;12.73;;;;;;;-3.23;75.46;97273.63;6153188;23;20175;-87
2022/01/28 04:24:49;;;;;;;25.10;11.97;;;;;;;-3.28;75.44;97269.34;6126120;23;20163;-83
2022/01/28 04:27:17;;;;;;;20.30;12.27;;;;;;;-3.30;75.76;97265.94;6100875;23;20683;-83
2022/01/28 04:29:48;;;;;;;33.70;17.33;;;;;;;-3.46;75.62;97241.31;6125111;23;20197;-83
2022/01/28 04:32:18;;;;;;;32.20;15.67;;;;;;;-3.36;75.63;97255.75;6125144;23;20171;-83
2022/01/28 04:34:46;;;;;;;26.30;13.90;;;;;;;-3.15;75.45;97256.84;6126363;23;20174;-80
2022/01/28 04:37:32;;;;;;;27.27;13.87;;;;;;;-3.38;75.92;97237.16;6124900;23;20218;-84
2022/01/28 04:40:28;;;;;;;26.90;14.43;;;;;;;-3.17;76.08;97251.75;6124691;23;20199;-83
2022/01/28 04:50:33;;;;;;;39.03;19.90;;;;;;;-3.16;75.10;97225.59;6162445;23;20174;-85
2022/01/28 05:11:58;;;;;;;29.03;13.73;;;;;;;-3.91;75.63;97185.09;6137582;23;20187;-82
2022/01/28 05:15:08;;;;;;;23.13;12.77;;;;;;;-3.90;76.05;97226.41;6125230;23;20171;-80
2022/01/28 05:28:40;;;;;;;22.63;12.20;;;;;;;-4.23;77.43;97197.34;6126796;23;20170;-83
2022/01/28 05:31:09;;;;;;;21.20;11.73;;;;;;;-4.19;78.19;97233.59;6160758;23;20218;-87
2022/01/28 05:33:37;;;;;;;19.30;11.00;;;;;;;-4.08;78.36;97223.66;6124434;23;20449;-82
2022/01/28 05:36:04;;;;;;;25.13;11.47;;;;;;;-3.96;78.45;97229.72;6148995;23;20163;-83
2022/01/28 05:38:33;;;;;;;26.53;12.67;;;;;;;-4.02;77.42;97206.88;6098423;23;20203;-83
2022/01/28 05:41:05;;;;;;;21.53;10.90;;;;;;;-4.62;77.61;97125.19;6149011;23;20190;-82
2022/01/28 05:43:32;;;;;;;26.07;12.10;;;;;;;-3.99;77.67;97239.78;6149093;23;20218;-83
2022/01/28 05:46:00;;;;;;;24.07;12.93;;;;;;;-3.99;78.21;97237.25;6123621;23;20253;-83
2022/01/28 05:48:29;;;;;;;27.73;14.03;;;;;;;-4.10;78.23;97226.13;6125302;23;20566;-83
2022/01/28 05:50:57;;;;;;;23.07;12.97;;;;;;;-4.03;78.83;97232.13;6104133;23;20168;-83
2022/01/28 05:53:25;;;;;;;29.20;13.00;;;;;;;-4.05;78.29;97229.59;6124315;23;20259;-83
2022/01/28 05:55:54;;;;;;;27.53;14.77;;;;;;;-4.07;78.78;97205.09;6125397;23;20702;-83
2022/01/28 05:58:23;;;;;;;25.33;14.77;;;;;;;-3.82;78.33;97227.34;6098967;23;20168;-83
2022/01/28 06:00:52;;;;;;;29.30;15.50;;;;;;;-3.98;78.22;97195.97;6123565;23;20223;-82
2022/01/28 06:03:19;;;;;;;28.17;13.83;;;;;;;-3.56;77.21;97244.56;6149956;23;20200;-87
2022/01/28 06:05:48;;;;;;;28.67;14.73;;;;;;;-3.68;77.82;97225.84;6075843;23;20711;-83
2022/01/28 06:08:17;;;;;;;26.97;14.37;;;;;;;-3.38;77.35;97221.97;6124753;23;20617;-83
2022/01/28 06:10:45;;;;;;;31.47;16.33;;;;;;;-3.25;76.56;97206.91;6149842;23;20203;-83
2022/01/28 06:13:16;;;;;;;27.80;15.30;;;;;;;-3.10;76.09;97218.06;6123970;23;20159;-84
2022/01/28 06:15:56;;;;;;;33.03;15.73;;;;;;;-2.94;75.18;97219.06;6125188;23;20175;-82
2022/01/28 06:18:29;;;;;;;30.37;16.20;;;;;;;-2.79;74.63;97234.41;6102517;23;20197;-84
2022/01/28 06:20:57;;;;;;;35.07;17.40;;;;;;;-2.84;74.27;97190.44;6149003;23;20212;-88
2022/01/28 06:23:26;;;;;;;34.43;18.30;;;;;;;-2.32;73.96;97239.84;6098691;23;20182;-83
2022/01/28 06:25:54;;;;;;;27.13;15.17;;;;;;;-2.53;73.34;97177.16;6123017;23;20501;-83
2022/01/28 06:28:30;;;;;;;37.17;18.83;;;;;;;-2.46;73.27;97211.88;6098940;23;20176;-83
2022/01/28 06:30:57;;;;;;;32.70;18.37;;;;;;;-2.41;73.60;97216.97;6124502;23;20176;-83
2022/01/28 06:33:26;;;;;;;29.77;16.50;;;;;;;-2.27;73.36;97234.00;6153697;23;20189;-89
2022/01/28 06:35:58;;;;;;;30.33;15.43;;;;;;;-2.32;73.26;97242.38;6152261;23;20388;-90
2022/01/28 06:38:25;;;;;;;32.47;16.47;;;;;;;-2.27;73.68;97246.66;6152423;23;20179;-83
2022/01/28 06:40:54;;;;;;;33.00;17.83;;;;;;;-2.27;73.62;97231.44;6151933;23;20261;-84
2022/01/28 06:43:21;;;;;;;32.20;17.77;;;;;;;-2.23;74.18;97258.53;6153520;23;20171;-81
2022/01/28 06:45:48;;;;;;;29.93;15.50;;;;;;;-2.22;74.06;97255.13;6085938;23;20207;-83
2022/01/28 06:48:16;;;;;;;35.17;16.10;;;;;;;-2.19;74.64;97236.56;6134251;23;20246;-82
2022/01/28 06:50:48;;;;;;;26.73;14.90;;;;;;;-1.98;74.05;97242.59;6080960;23;20175;-82
2022/01/28 06:53:20;;;;;;;29.97;17.53;;;;;;;-2.07;74.50;97234.97;6128757;23;20170;-83
2022/01/28 06:55:47;;;;;;;29.17;16.20;;;;;;;-2.03;74.53;97234.13;6126590;23;20962;-83
2022/01/28 06:58:16;;;;;;;27.03;14.83;;;;;;;-1.90;74.66;97241.00;6125590;23;20174;-85
2022/01/28 07:00:45;;;;;;;30.67;16.80;;;;;;;-1.98;75.17;97217.25;6126459;23;20215;-84
2022/01/28 07:03:15;;;;;;;43.63;21.93;;;;;;;-2.12;75.15;97201.09;6127077;23;20302;-89
2022/01/28 07:05:44;;;;;;;32.93;15.93;;;;;;;-2.07;75.23;97212.13;6151568;23;20252;-84
2022/01/28 07:08:12;;;;;;;28.03;16.53;;;;;;;-1.92;75.30;97229.13;6126300;23;20646;-84
2022/01/28 07:10:39;;;;;;;32.33;17.30;;;;;;;-2.23;75.56;97174.84;6150053;23;20215;-83
2022/01/28 07:13:08;;;;;;;37.50;17.50;;;;;;;-1.98;75.78;97222.31;6126139;23;20586;-84
2022/01/28 07:15:36;;;;;;;25.37;15.70;;;;;;;-1.80;75.57;97194.53;6126696;23;20182;-83
2022/01/28 07:18:04;;;;;;;27.33;15.67;;;;;;;-1.78;75.54;97200.44;6126608;23;20171;-83
2022/01/28 07:20:33;;;;;;;22.80;13.17;;;;;;;-1.95;74.72;97174.13;6104057;23;20593;-83
2022/01/28 07:23:03;;;;;;;19.87;10.70;;;;;;;-1.90;75.09;97152.19;6153100;23;20174;-83
2022/01/28 07:25:32;;;;;;;18.73;10.47;;;;;;;-1.36;74.09;97216.69;6102325;23;20262;-90
2022/01/28 07:27:59;;;;;;;24.23;15.03;;;;;;;-1.28;73.59;97174.38;6100256;23;20198;-88
2022/01/28 07:30:27;;;;;;;22.23;13.83;;;;;;;-0.68;72.55;97215.09;6125221;23;20170;-82
2022/01/28 07:32:55;;;;;;;26.47;13.53;;;;;;;-0.47;71.77;97204.94;6126135;23;20248;-82
2022/01/28 07:35:23;;;;;;;21.47;13.13;;;;;;;-0.49;71.81;97185.44;6078235;23;20210;-83
2022/01/28 07:37:51;;;;;;;25.47;14.17;;;;;;;-0.65;71.72;97161.72;6080071;23;20236;-84
2022/01/28 07:40:18;;;;;;;27.30;14.80;;;;;;;-0.23;71.09;97216.81;6105019;23;20242;-89
2022/01/28 07:42:45;;;;;;;26.13;15.83;;;;;;;-0.28;71.63;97193.91;6154118;23;20160;-85
2022/01/28 07:45:16;;;;;;;29.87;17.70;;;;;;;-0.17;71.29;97204.09;6152929;23;20174;-87
2022/01/28 07:47:44;;;;;;;25.07;14.43;;;;;;;-0.32;71.65;97215.13;6152542;23;20743;-85
2022/01/28 07:50:14;;;;;;;28.27;15.50;;;;;;;-0.25;72.22;97193.06;6103121;23;20178;-88
2022/01/28 07:52:43;;;;;;;27.97;15.53;;;;;;;-0.18;71.69;97202.38;6127121;23;20168;-83
2022/01/28 07:55:12;;;;;;;25.67;14.17;;;;;;;-0.23;71.29;97199.81;6151759;23;20186;-86
2022/01/28 07:57:41;;;;;;;33.90;16.80;;;;;;;-0.10;70.63;97188.78;6125640;23;20190;-82
2022/01/28 08:00:11;;;;;;;24.90;15.00;;;;;;;0.09;70.19;97186.19;6124586;23;20236;-84
2022/01/28 08:02:42;;;;;;;26.80;15.17;;;;;;;0.42;68.88;97202.22;6124783;23;20210;-84
2022/01/28 08:05:14;;;;;;;19.60;12.10;;;;;;;0.68;67.76;97184.28;6124005;23;20234;-84
2022/01/28 08:07:46;;;;;;;21.33;12.03;;;;;;;0.95;67.33;97184.09;6151651;23;20227;-84
2022/01/28 08:10:17;;;;;;;20.37;12.97;;;;;;;1.05;66.67;97188.28;6101975;23;20175;-84
2022/01/28 08:12:50;;;;;;;25.20;12.97;;;;;;;1.34;65.06;97203.44;6100500;23;20177;-84
2022/01/28 08:15:20;;;;;;;28.40;15.37;;;;;;;1.52;65.21;97209.22;6125459;23;20539;-86
2022/01/28 08:17:47;;;;;;;32.37;17.13;;;;;;;1.62;65.61;97194.69;6101759;23;20172;-84
2022/01/28 08:20:16;;;;;;;27.50;15.73;;;;;;;1.74;64.58;97197.13;6129251;23;20170;-88
2022/01/28 08:22:53;;;;;;;29.43;15.80;;;;;;;1.62;62.92;97192.97;6129240;23;20209;-88
2022/01/28 08:25:23;;;;;;;24.63;15.03;;;;;;;1.45;64.52;97202.47;6153561;23;20171;-86
2022/01/28 08:27:52;;;;;;;29.23;15.80;;;;;;;1.46;64.34;97204.16;6127970;23;20614;-85
2022/01/28 08:30:26;;;;;;;45.23;19.97;;;;;;;1.49;64.00;97196.50;6127794;23;20178;-85
2022/01/28 08:32:55;;;;;;;32.70;17.73;;;;;;;1.49;63.63;97188.84;6129421;23;20210;-86
2022/01/28 08:35:34;;;;;;;31.13;18.17;;;;;;;1.25;63.99;97163.53;6128020;23;20182;-88
2022/01/28 08:38:16;;;;;;;30.13;16.13;;;;;;;1.47;62.36;97149.72;6127353;23;20205;-91
2022/01/28 08:40:46;;;;;;;21.73;13.93;;;;;;;1.62;61.60;97149.59;6131120;23;20616;-83
2022/01/28 08:43:14;;;;;;;29.83;16.83;;;;;;;2.03;62.11;97181.53;6126960;23;20217;-83
2022/01/28 08:45:44;;;;;;;27.17;15.40;;;;;;;2.22;61.56;97198.34;6131832;23;20588;-84
2022/01/28 08:48:18;;;;;;;26.60;13.57;;;;;;;2.22;62.52;97172.81;6131493;23;20612;-84
2022/01/28 08:50:52;;;;;;;23.73;13.17;;;;;;;2.29;62.30;97153.97;6162180;23;20170;-83
2022/01/28 08:53:20;;;;;;;18.50;10.87;;;;;;;2.52;60.56;97190.34;6162130;23;20177;-82
2022/01/28 08:55:47;;;;;;;18.83;11.13;;;;;;;2.59;60.02;97170.66;6159681;23;20518;-83
2022/01/28 08:58:23;;;;;;;12.30;8.90;;;;;;;2.80;58.88;97161.00;6134600;23;20193;-83
2022/01/28 09:00:52;;;;;;;19.07;10.10;;;;;;;3.06;58.03;97186.22;6110559;23;20199;-84
2022/01/28 09:03:20;;;;;;;18.33;10.20;;;;;;;3.03;58.69;97181.97;6088285;23;20230;-83
2022/01/28 09:05:51;;;;;;;20.60;10.93;;;;;;;3.14;58.43;97163.91;6159760;23;20221;-82
2022/01/28 09:08:21;;;;;;;12.70;7.87;;;;;;;3.31;57.42;97167.09;6128765;23;20525;-83
2022/01/28 09:10:58;;;;;;;15.53;8.03;;;;;;;3.38;56.65;97163.53;6105975;23;20167;-85
2022/01/28 09:13:37;;;;;;;17.27;10.57;;;;;;;3.56;57.15;97167.53;6155638;23;20675;-87
2022/01/28 09:16:05;;;;;;;12.33;8.20;;;;;;;3.49;55.30;97115.59;6127830;23;20623;-85
2022/01/28 09:18:34;;;;;;;7.67;5.60;;;;;;;3.73;54.66;97151.00;6155663;23;20222;-87
2022/01/28 09:21:02;;;;;;;7.40;4.60;;;;;;;3.93;53.25;97154.09;6103203;23;20183;-85
2022/01/28 09:23:31;;;;;;;11.73;6.53;;;;;;;4.15;52.74;97169.91;6126451;23;20181;-84
2022/01/28 09:26:02;;;;;;;9.47;5.40;;;;;;;4.08;52.20;97152.97;6103241;23;20176;-85
2022/01/28 09:28:31;;;;;;;19.47;6.37;;;;;;;4.24;52.61;97148.38;6127421;23;20188;-83
2022/01/28 09:31:00;;;;;;;22.37;6.60;;;;;;;4.26;52.61;97137.22;6100410;23;20241;-84
2022/01/28 09:33:30;;;;;;;10.67;5.87;;;;;;;4.28;51.46;97127.78;6152936;23;20230;-83
2022/01/28 09:36:03;;;;;;;8.77;5.30;;;;;;;4.42;51.12;97112.13;6155714;23;20521;-87
2022/01/28 09:38:37;;;;;;;17.80;7.57;;;;;;;4.49;51.68;97118.81;6128636;23;20269;-85
2022/01/28 09:41:09;;;;;;;34.80;11.93;;;;;;;4.66;51.62;97129.53;6129004;23;20197;-82
2022/01/28 09:43:43;;;;;;;18.03;9.47;;;;;;;4.80;50.74;97125.00;6132394;23;20173;-86
2022/01/28 09:46:13;;;;;;;18.33;8.60;;;;;;;4.80;51.09;97083.94;6131247;23;20260;-84
2022/01/28 09:48:44;;;;;;;14.80;8.53;;;;;;;4.91;51.57;97084.53;6108088;23;20650;-85
2022/01/28 09:51:15;;;;;;;13.20;8.43;;;;;;;4.84;50.40;97101.78;6129130;23;20173;-85
2022/01/28 09:53:44;;;;;;;19.20;8.47;;;;;;;5.07;49.95;97103.00;6151174;23;20622;-86
2022/01/28 09:56:13;;;;;;;22.63;9.57;;;;;;;4.99;49.64;97095.44;6128217;23;20174;-86
2022/01/28 09:59:06;;;;;;;13.67;7.97;;;;;;;4.92;49.85;97094.75;6131656;23;20228;-88
2022/01/28 10:02:09;;;;;;;17.50;9.60;;;;;;;5.11;49.90;97110.56;6125644;23;20721;-84
2022/01/28 10:04:44;;;;;;;17.50;10.53;;;;;;;5.25;49.40;97100.00;6080127;23;20341;-87
2022/01/28 10:07:19;;;;;;;40.20;14.17;;;;;;;5.36;49.70;97090.28;6154260;23;20170;-84
2022/01/28 10:09:59;;;;;;;20.40;10.47;;;;;;;5.54;49.47;97089.84;6105820;23;20198;-84
2022/01/28 10:12:40;;;;;;;16.30;9.20;;;;;;;5.51;48.73;97079.63;6130206;23;20170;-85
2022/01/28 10:15:20;;;;;;;19.33;10.60;;;;;;;5.73;49.55;97098.75;6081529;23;20534;-84
2022/01/28 10:17:58;;;;;;;17.43;9.07;;;;;;;5.91;49.11;97106.03;6104764;23;20181;-85
2022/01/28 10:20:28;;;;;;;16.93;8.47;;;;;;;6.00;50.05;97112.63;6107443;23;20179;-84
2022/01/28 10:23:02;;;;;;;14.90;9.37;;;;;;;5.89;49.38;97081.25;6132815;23;20204;-84
2022/01/28 10:25:36;;;;;;;19.17;8.10;;;;;;;6.12;49.53;97081.47;6103070;23;20649;-86
2022/01/28 10:28:12;;;;;;;21.23;8.30;;;;;;;6.38;48.90;97105.59;6129276;23;20201;-84
2022/01/28 10:30:46;;;;;;;16.33;8.93;;;;;;;6.41;49.08;97081.47;6153788;23;20171;-85
2022/01/28 10:33:18;;;;;;;13.57;8.53;;;;;;;6.17;48.67;97054.75;6155470;23;20174;-87
2022/01/28 10:38:59;;;;;;;16.10;7.77;;;;;;;6.46;48.29;97077.91;6159933;23;20206;-89
2022/01/28 10:41:33;;;;;;;12.13;7.47;;;;;;;6.53;50.11;97087.13;6107517;23;20196;-84
2022/01/28 10:44:02;;;;;;;13.47;7.60;;;;;;;6.72;49.43;97076.31;6032228;23;20193;-85
2022/01/28 10:46:37;;;;;;;20.20;8.30;;;;;;;6.57;49.22;97039.00;6107743;23;20193;-86
2022/01/28 10:49:26;;;;;;;22.53;9.13;;;;;;;6.74;48.53;97074.53;6156954;23;20174;-88
2022/01/28 10:52:02;;;;;;;14.40;8.50;;;;;;;6.88;47.41;97078.38;6086203;23;20171;-85
2022/01/28 10:54:42;;;;;;;13.93;8.37;;;;;;;7.05;47.15;97075.25;6108819;23;20230;-85
2022/01/28 10:57:11;;;;;;;14.03;8.00;;;;;;;7.18;47.83;97058.53;6135056;23;20597;-90
2022/01/28 10:59:43;;;;;;;21.40;9.33;;;;;;;6.94;47.74;97034.41;6143347;23;20165;-89
2022/01/28 11:02:13;;;;;;;23.17;10.30;;;;;;;7.24;47.33;97066.91;6136277;23;20206;-83
2022/01/28 11:04:49;;;;;;;15.47;7.63;;;;;;;7.25;48.49;97080.63;6131226;23;20211;-88
2022/01/28 11:07:28;;;;;;;30.03;11.73;;;;;;;7.36;47.67;97081.09;6108543;23;20175;-89
2022/01/28 11:09:56;;;;;;;13.83;8.67;;;;;;;7.18;47.72;97040.50;6082894;23;20167;-84
2022/01/28 11:12:25;;;;;;;20.43;9.53;;;;;;;7.34;47.38;97041.69;6105546;23;20310;-87
2022/01/28 11:14:57;;;;;;;21.77;10.50;;;;;;;7.65;46.89;97056.94;6130142;23;20245;-90
2022/01/28 11:17:29;;;;;;;19.20;10.10;;;;;;;7.54;46.70;97023.00;6111269;23;20178;-89
2022/01/28 11:19:59;;;;;;;20.27;7.90;;;;;;;7.55;46.79;97046.13;6108683;23;20179;-87
2022/01/28 11:23:02;;;;;;;10.47;6.40;;;;;;;7.68;46.81;97047.41;6132083;23;20203;-92
2022/01/28 11:25:44;;;;;;;15.93;7.33;;;;;;;7.77;44.94;97046.25;6161085;23;20171;-93
2022/01/28 11:28:18;;;;;;;8.53;5.63;;;;;;;7.91;44.54;97046.59;6157187;23;20183;-94
2022/01/28 11:30:52;;;;;;;13.90;8.30;;;;;;;7.99;45.61;97042.84;6162577;23;20175;-90
2022/01/28 11:33:21;;;;;;;22.87;10.90;;;;;;;7.98;45.53;97042.88;6160365;23;20182;-90
2022/01/28 11:36:06;;;;;;;19.43;9.57;;;;;;;8.03;44.69;97015.22;6111389;23;20259;-93
2022/01/28 11:38:41;;;;;;;17.20;8.67;;;;;;;8.31;45.04;97040.84;6133385;23;20238;-94
2022/01/28 11:41:57;;;;;;;19.03;7.97;;;;;;;8.50;45.33;97034.13;6088563;23;20179;-93
2022/01/28 11:44:59;;;;;;;8.83;5.40;;;;;;;8.88;45.05;97038.69;6108760;23;20176;-87
2022/01/28 11:48:21;;;;;;;15.70;5.60;;;;;;;9.03;44.52;97030.31;6101983;23;20174;-89
2022/01/28 11:51:43;;;;;;;6.63;2.97;;;;;;;9.27;44.54;97044.84;6103561;23;20248;-85
2022/01/28 11:55:05;;;;;;;7.80;3.30;;;;;;;9.41;43.65;97034.78;6123551;23;20191;-90
2022/01/28 11:58:33;;;;;;;10.30;6.03;;;;;;;9.52;43.99;97029.97;6116862;23;20175;-85
2022/01/28 12:01:44;;;;;;;7.20;4.77;;;;;;;9.57;44.02;97041.00;6125169;23;20175;-84
2022/01/28 12:04:35;;;;;;;7.27;4.10;;;;;;;9.72;43.40;97029.16;6103624;23;20206;-91
2022/01/28 12:08:04;;;;;;;9.83;4.30;;;;;;;9.68;43.36;97025.03;6154691;23;20168;-90
2022/01/28 12:11:25;;;;;;;15.80;5.60;;;;;;;9.87;43.41;97022.50;6129318;23;20190;-91
2022/01/28 12:14:44;;;;;;;11.70;4.70;;;;;;;9.88;43.02;97019.84;6127276;23;20250;-85
2022/01/28 12:17:36;;;;;;;8.67;3.80;;;;;;;9.92;42.75;97017.94;6155218;23;20219;-91
2022/01/28 12:20:59;;;;;;;5.73;3.40;;;;;;;10.01;43.23;97017.56;6159963;23;20174;-91
2022/01/28 12:24:21;;;;;;;6.47;4.07;;;;;;;10.10;42.43;97019.75;6157793;23;20212;-95
2022/01/28 12:27:46;;;;;;;5.83;2.90;;;;;;;10.04;42.06;97020.00;6131899;23;20195;-85
2022/01/28 12:31:19;;;;;;;7.97;4.30;;;;;;;9.90;42.71;97017.19;6061598;23;20173;-84
2022/01/28 12:34:44;;;;;;;7.67;3.30;;;;;;;9.72;42.62;97017.09;6062224;23;20474;-88
2022/01/28 12:38:10;;;;;;;15.53;6.50;;;;;;;9.59;43.39;96994.38;6037895;23;20229;-86
2022/01/28 12:41:41;;;;;;;4.17;2.97;;;;;;;9.67;43.14;97011.25;6061740;23;20210;-84
2022/01/28 12:45:11;;;;;;;5.73;2.97;;;;;;;9.56;43.23;97004.88;6038402;23;20515;-84
2022/01/28 12:48:34;;;;;;;10.60;3.50;;;;;;;9.56;43.16;97008.28;6058542;23;20202;-85
2022/01/28 12:52:03;;;;;;;6.17;3.40;;;;;;;9.48;42.64;97007.75;6064329;23;20172;-84
2022/01/28 12:55:30;;;;;;;7.77;4.30;;;;;;;9.57;41.88;97003.94;6062222;23;20389;-84
2022/01/28 12:58:56;;;;;;;8.97;5.50;;;;;;;9.53;41.80;96995.50;6062410;23;20177;-84
2022/01/28 13:02:22;;;;;;;10.83;4.77;;;;;;;9.56;41.66;97004.88;6089165;23;20190;-84
2022/01/28 13:05:56;;;;;;;2.57;2.10;;;;;;;9.60;41.92;97002.06;6101286;23;21057;-88
2022/01/28 13:09:17;;;;;;;5.43;2.93;;;;;;;9.61;42.48;96998.59;6128383;23;20182;-95
2022/01/28 13:12:38;;;;;;;3.33;2.60;;;;;;;9.61;43.15;96988.25;6103282;23;20173;-90
2022/01/28 13:16:01;;;;;;;2.30;1.70;;;;;;;9.63;42.99;97009.69;6152745;23;20220;-85
2022/01/28 13:19:34;;;;;;;4.90;2.20;;;;;;;9.52;43.16;96998.97;6130544;23;20187;-86
2022/01/28 13:22:55;;;;;;;3.53;2.57;;;;;;;9.28;43.14;96981.91;6124111;23;20254;-83
2022/01/28 13:26:24;;;;;;;4.57;2.10;;;;;;;9.52;42.67;97016.25;6103557;23;20689;-85
2022/01/28 13:29:28;;;;;;;3.37;2.17;;;;;;;9.45;42.86;97026.00;6135154;23;20177;-85
2022/01/28 13:32:49;;;;;;;2.47;1.87;;;;;;;9.43;42.15;97030.38;6137431;23;20259;-85
2022/01/28 13:36:13;;;;;;;11.23;2.63;;;;;;;9.51;40.60;97017.97;6110036;23;20201;-86
2022/01/28 13:39:36;;;;;;;8.43;2.33;;;;;;;9.42;39.48;97005.44;6157976;23;20171;-85
2022/01/28 13:42:57;;;;;;;4.30;2.10;;;;;;;9.37;39.66;97014.28;6129417;23;20219;-94
2022/01/28 13:46:27;;;;;;;2.70;1.50;;;;;;;9.40;39.76;97008.97;6108327;23;20171;-84